Time;durP1;ratioP1;P1;durP2;ratioP2;P2;SDS_P1;SDS_P2;PMS_P1;PMS_P2;Temp;Humidity;BMP_temperature;BMP_pressure;BME280_temperature;BME280_humidity;BME280_pressure;Samples;Min_cycle;Max_cycle;Signal;HPM_P1;HPM_P2
2022/07/31 00:02:17;;;;;;;8.17;3.33;;;11.30;99.90;;;;;;5106064;28;20184;-71
2022/07/31 00:04:45;;;;;;;6.60;2.63;;;11.70;99.90;;;;;;5100692;28;20678;-71
2022/07/31 00:07:12;;;;;;;8.47;2.80;;;11.80;99.90;;;;;;5095696;28;20208;-71
2022/07/31 00:09:40;;;;;;;5.57;2.50;;;12.20;99.90;;;;;;5096573;28;20177;-71
2022/07/31 00:12:08;;;;;;;6.50;2.40;;;12.40;99.90;;;;;;5116319;27;20239;-70
2022/07/31 00:14:36;;;;;;;6.03;2.80;;;12.50;99.90;;;;;;5079799;28;20212;-71
2022/07/31 00:17:04;;;;;;;6.33;2.47;;;12.60;99.90;;;;;;5095484;28;20243;-71
2022/07/31 00:19:31;;;;;;;5.63;2.07;;;12.80;99.90;;;;;;5096519;28;20186;-70
2022/07/31 00:21:59;;;;;;;9.50;3.00;;;13.00;99.90;;;;;;5106571;28;20630;-71
2022/07/31 00:24:28;;;;;;;6.33;2.60;;;13.80;99.90;;;;;;5100339;28;20702;-71
2022/07/31 00:26:55;;;;;;;6.83;2.40;;;14.20;99.90;;;;;;5101703;28;20254;-70
2022/07/31 00:29:23;;;;;;;5.77;2.40;;;14.10;99.90;;;;;;5095167;28;20187;-71
2022/07/31 00:31:51;;;;;;;4.00;2.10;;;14.40;99.90;;;;;;5097955;28;20218;-71
2022/07/31 00:34:19;;;;;;;7.33;2.47;;;14.50;99.90;;;;;;5102503;28;20221;-70
2022/07/31 00:36:46;;;;;;;3.73;2.03;;;14.40;99.90;;;;;;5111695;28;20278;-71
2022/07/31 00:39:14;;;;;;;4.43;2.10;;;15.00;99.90;;;;;;5110164;28;20900;-70
2022/07/31 00:41:44;;;;;;;8.00;2.50;;;15.50;99.90;;;;;;5093433;28;20176;-69
2022/07/31 00:44:13;;;;;;;7.57;2.50;;;14.90;99.90;;;;;;5093293;28;20180;-71
2022/07/31 00:46:42;;;;;;;5.27;2.13;;;14.70;99.90;;;;;;5095835;28;20210;-71
2022/07/31 00:49:10;;;;;;;5.67;2.47;;;14.80;99.90;;;;;;5112024;28;20198;-71
2022/07/31 00:51:41;;;;;;;7.37;2.50;;;15.00;99.90;;;;;;5113790;28;20182;-71
2022/07/31 00:54:09;;;;;;;5.43;2.10;;;15.30;99.90;;;;;;5110758;28;20182;-71
2022/07/31 00:56:37;;;;;;;4.53;2.20;;;15.40;99.90;;;;;;5077197;28;20186;-72
2022/07/31 00:59:05;;;;;;;4.67;2.50;;;16.20;99.90;;;;;;5113297;28;20215;-72
2022/07/31 01:01:33;;;;;;;5.30;2.53;;;16.60;99.90;;;;;;5107377;28;20251;-72
2022/07/31 01:04:01;;;;;;;5.10;1.77;;;16.70;99.90;;;;;;5092574;28;20189;-71
2022/07/31 01:06:28;;;;;;;5.40;2.77;;;17.20;99.90;;;;;;5093391;28;20577;-71
2022/07/31 01:08:56;;;;;;;6.63;2.63;;;17.80;99.90;;;;;;5095636;28;20187;-71
2022/07/31 01:11:30;;;;;;;5.97;2.87;;;17.70;99.90;;;;;;5093528;28;20180;-71
2022/07/31 01:14:04;;;;;;;3.50;2.30;;;17.60;99.90;;;;;;5094887;28;20187;-70
2022/07/31 01:16:38;;;;;;;12.37;2.70;;;17.90;99.90;;;;;;5112551;28;20188;-70
2022/07/31 01:19:31;;;;;;;5.53;2.50;;;18.30;99.90;;;;;;5113073;28;20252;-72
2022/07/31 01:22:19;;;;;;;5.57;2.57;;;18.50;99.90;;;;;;5098430;28;20194;-71
2022/07/31 01:25:02;;;;;;;7.23;2.20;;;18.90;99.90;;;;;;5092741;28;20193;-70
2022/07/31 01:27:38;;;;;;;5.03;2.73;;;18.90;99.90;;;;;;5099145;28;20643;-65
2022/07/31 01:30:07;;;;;;;4.80;1.83;;;18.90;99.90;;;;;;5099873;28;20189;-65
2022/07/31 01:32:40;;;;;;;5.37;1.53;;;18.80;99.90;;;;;;5071956;28;20262;-66
2022/07/31 01:35:29;;;;;;;4.40;1.40;;;18.30;99.90;;;;;;5079254;28;20203;-67
2022/07/31 01:38:12;;;;;;;5.13;1.60;;;17.90;99.90;;;;;;5112697;28;20214;-67
2022/07/31 01:40:47;;;;;;;3.73;1.47;;;17.90;99.90;;;;;;5112773;28;20178;-65
2022/07/31 01:43:30;;;;;;;4.33;1.43;;;18.30;99.90;;;;;;5112214;28;20269;-68
2022/07/31 01:46:00;;;;;;;5.33;1.40;;;18.30;99.90;;;;;;5102357;28;20183;-66
2022/07/31 01:48:32;;;;;;;10.67;1.80;;;18.00;99.90;;;;;;5092350;28;20179;-66
2022/07/31 01:51:01;;;;;;;3.60;1.70;;;18.30;99.90;;;;;;5106357;28;20178;-68
2022/07/31 01:53:30;;;;;;;5.20;1.53;;;18.50;99.90;;;;;;5112520;28;20197;-66
2022/07/31 01:55:59;;;;;;;5.23;1.60;;;18.80;99.90;;;;;;5102553;28;20208;-66
2022/07/31 01:58:29;;;;;;;5.50;1.50;;;19.20;99.90;;;;;;5091984;28;20211;-66
2022/07/31 02:00:58;;;;;;;6.83;1.57;;;19.70;99.90;;;;;;5092097;28;20179;-68
2022/07/31 02:03:28;;;;;;;7.23;1.93;;;19.90;99.90;;;;;;5087695;28;20646;-68
2022/07/31 02:05:56;;;;;;;10.50;1.53;;;19.90;99.90;;;;;;5090175;28;20180;-68
2022/07/31 02:08:25;;;;;;;3.90;1.60;;;19.70;99.90;;;;;;5112332;28;20593;-68
2022/07/31 02:10:53;;;;;;;2.50;1.37;;;19.30;99.90;;;;;;5098623;28;20536;-70
2022/07/31 02:13:22;;;;;;;4.10;1.67;;;19.40;99.90;;;;;;5109154;28;20277;-70
2022/07/31 02:15:52;;;;;;;3.93;1.70;;;19.50;99.90;;;;;;5109573;28;20556;-70
2022/07/31 02:18:21;;;;;;;5.17;1.50;;;19.50;99.90;;;;;;5101544;28;20217;-70
2022/07/31 02:20:50;;;;;;;3.13;1.40;;;19.50;99.90;;;;;;5091699;28;20173;-69
2022/07/31 02:23:18;;;;;;;6.83;2.13;;;19.50;99.90;;;;;;5091471;28;20179;-70
2022/07/31 02:25:47;;;;;;;5.00;1.50;;;19.40;99.90;;;;;;5109056;28;20194;-70
2022/07/31 02:28:21;;;;;;;5.37;2.47;;;19.30;99.90;;;;;;5111976;28;20171;-69
2022/07/31 02:30:50;;;;;;;4.47;2.40;;;19.40;99.90;;;;;;5111231;28;20710;-69
2022/07/31 02:33:27;;;;;;;5.87;1.97;;;18.90;99.90;;;;;;5093396;28;20684;-70
2022/07/31 02:35:56;;;;;;;4.07;1.77;;;18.70;99.90;;;;;;5094247;28;20192;-66
2022/07/31 02:38:27;;;;;;;5.17;1.60;;;18.80;99.90;;;;;;5091309;28;20210;-65
2022/07/31 02:40:58;;;;;;;5.93;2.10;;;19.30;99.90;;;;;;5091533;28;20183;-66
2022/07/31 02:43:27;;;;;;;4.63;2.00;;;18.80;99.90;;;;;;5107522;28;20183;-68
2022/07/31 02:45:59;;;;;;;2.93;1.63;;;18.50;99.90;;;;;;5094212;28;20179;-67
2022/07/31 02:48:27;;;;;;;7.17;1.97;;;18.60;99.90;;;;;;5107166;28;20616;-68
2022/07/31 02:50:55;;;;;;;7.93;2.47;;;18.50;99.90;;;;;;5071250;28;20694;-66
2022/07/31 02:53:24;;;;;;;7.63;2.13;;;18.50;99.90;;;;;;5071102;28;20168;-67
2022/07/31 02:55:53;;;;;;;4.60;1.43;;;18.70;99.90;;;;;;5071061;28;20180;-65
2022/07/31 02:58:20;;;;;;;5.07;1.87;;;18.60;99.90;;;;;;5099867;28;20209;-66
2022/07/31 03:00:57;;;;;;;3.37;1.70;;;18.60;99.90;;;;;;5111570;28;20175;-67
2022/07/31 03:03:24;;;;;;;6.30;1.87;;;18.80;99.90;;;;;;5111496;28;20274;-66
2022/07/31 03:05:52;;;;;;;3.73;1.73;;;18.80;99.90;;;;;;5111187;28;20190;-65
2022/07/31 03:08:20;;;;;;;21.03;6.00;;;18.80;99.90;;;;;;5096735;28;20197;-65
2022/07/31 03:10:48;;;;;;;5.67;2.00;;;18.90;99.90;;;;;;5091062;28;20271;-66
2022/07/31 03:13:18;;;;;;;10.67;1.77;;;18.70;99.90;;;;;;5103269;28;20263;-65
2022/07/31 03:15:47;;;;;;;2.10;1.50;;;18.70;99.90;;;;;;5111066;28;20177;-66
2022/07/31 03:18:20;;;;;;;4.97;1.93;;;18.80;99.90;;;;;;5108894;28;20210;-69
2022/07/31 03:20:52;;;;;;;3.90;1.40;;;18.80;99.90;;;;;;5110876;28;20179;-70
2022/07/31 03:23:23;;;;;;;3.73;1.40;;;18.60;99.90;;;;;;5112010;28;20304;-67
2022/07/31 03:25:53;;;;;;;3.33;1.70;;;18.50;99.90;;;;;;5111433;28;20175;-68
2022/07/31 03:28:21;;;;;;;4.40;2.13;;;18.40;99.90;;;;;;5082429;28;20190;-66
2022/07/31 03:30:52;;;;;;;5.53;1.70;;;18.20;99.90;;;;;;5094516;28;20175;-66
2022/07/31 03:33:21;;;;;;;9.20;2.97;;;18.20;99.90;;;;;;5094716;28;20206;-66
2022/07/31 03:35:49;;;;;;;7.57;2.47;;;18.30;99.90;;;;;;5094650;28;20179;-66
2022/07/31 03:38:17;;;;;;;4.17;1.70;;;18.20;99.90;;;;;;5107385;28;20298;-66
2022/07/31 03:40:45;;;;;;;3.60;2.00;;;18.10;99.90;;;;;;5087636;28;20175;-66
2022/07/31 03:43:14;;;;;;;7.77;2.10;;;17.90;99.90;;;;;;5076397;28;20232;-65
2022/07/31 03:45:43;;;;;;;3.97;2.10;;;18.00;99.90;;;;;;5094635;28;20175;-65
2022/07/31 03:48:11;;;;;;;4.33;1.70;;;18.00;99.90;;;;;;5106466;28;20221;-65
2022/07/31 03:50:40;;;;;;;6.40;2.17;;;18.20;99.90;;;;;;5114908;28;20167;-66
2022/07/31 03:53:08;;;;;;;3.67;2.03;;;18.10;99.90;;;;;;5115001;28;20170;-66
2022/07/31 03:55:42;;;;;;;5.93;2.37;;;18.10;99.90;;;;;;5114855;28;20183;-66
2022/07/31 03:58:11;;;;;;;3.73;2.00;;;18.00;99.90;;;;;;5099183;28;20228;-65
2022/07/31 04:00:39;;;;;;;5.63;1.80;;;18.00;99.90;;;;;;5094327;28;20186;-66
2022/07/31 04:03:12;;;;;;;4.97;2.10;;;18.10;99.90;;;;;;5094176;28;20183;-66
2022/07/31 04:05:41;;;;;;;4.80;2.20;;;18.00;99.90;;;;;;5094051;28;20341;-66
2022/07/31 04:08:09;;;;;;;3.03;1.53;;;17.90;99.90;;;;;;5108344;28;20273;-67
2022/07/31 04:10:37;;;;;;;2.80;1.30;;;17.90;99.90;;;;;;5114578;28;20178;-67
2022/07/31 04:13:06;;;;;;;4.53;1.93;;;17.90;99.90;;;;;;5114469;28;20181;-66
2022/07/31 04:15:34;;;;;;;5.30;2.20;;;17.90;99.90;;;;;;5114509;28;20171;-65
2022/07/31 04:18:01;;;;;;;3.20;1.73;;;17.70;99.90;;;;;;5100529;28;20223;-65
2022/07/31 04:20:29;;;;;;;5.57;1.80;;;17.70;99.90;;;;;;5110416;28;20182;-65
2022/07/31 04:22:57;;;;;;;5.07;1.80;;;17.70;99.90;;;;;;5114321;28;20224;-66
2022/07/31 04:25:25;;;;;;;6.53;2.63;;;17.50;99.90;;;;;;5113944;28;20186;-66
2022/07/31 04:27:52;;;;;;;3.27;1.80;;;17.50;99.90;;;;;;5101817;28;20222;-66
2022/07/31 04:30:20;;;;;;;11.97;1.90;;;17.50;99.90;;;;;;5093747;28;20182;-66
2022/07/31 04:32:48;;;;;;;3.63;1.53;;;17.60;99.90;;;;;;5093516;28;20262;-64
2022/07/31 04:35:15;;;;;;;3.03;1.43;;;17.70;99.90;;;;;;5101698;28;20181;-66
2022/07/31 04:37:43;;;;;;;7.40;2.10;;;17.60;99.90;;;;;;5085098;28;20630;-66
2022/07/31 04:40:11;;;;;;;6.13;1.50;;;17.50;99.90;;;;;;5092894;28;20638;-66
2022/07/31 04:42:39;;;;;;;8.67;1.57;;;17.50;99.90;;;;;;5093565;28;20278;-66
2022/07/31 04:45:08;;;;;;;5.23;1.87;;;17.40;99.90;;;;;;5093439;28;20200;-67
2022/07/31 04:47:36;;;;;;;3.53;1.47;;;17.50;99.90;;;;;;5102062;28;20179;-65
2022/07/31 04:50:04;;;;;;;3.40;1.53;;;17.50;99.90;;;;;;5113735;28;20177;-65
2022/07/31 04:52:31;;;;;;;2.77;1.80;;;17.50;99.90;;;;;;5113464;28;20179;-65
2022/07/31 04:54:59;;;;;;;5.93;2.13;;;17.40;99.90;;;;;;5095060;28;20637;-65
2022/07/31 04:57:27;;;;;;;3.83;1.83;;;17.40;99.90;;;;;;5105860;28;20593;-66
2022/07/31 04:59:54;;;;;;;3.63;1.70;;;17.40;99.90;;;;;;5108958;28;20210;-67
2022/07/31 05:02:22;;;;;;;10.70;2.90;;;17.40;99.90;;;;;;5076475;28;20183;-65
2022/07/31 05:04:50;;;;;;;4.50;2.20;;;17.40;99.90;;;;;;5113335;28;20171;-66
2022/07/31 05:07:17;;;;;;;8.57;3.20;;;17.40;99.90;;;;;;5110033;28;20604;-66
2022/07/31 05:09:45;;;;;;;5.27;2.47;;;17.30;99.90;;;;;;5108823;28;20179;-66
2022/07/31 05:12:13;;;;;;;2.33;1.60;;;17.30;99.90;;;;;;5092768;28;20192;-66
2022/07/31 05:14:41;;;;;;;3.07;1.70;;;17.20;99.90;;;;;;5099962;28;20172;-70
2022/07/31 05:17:08;;;;;;;2.40;1.20;;;17.20;99.90;;;;;;5111000;28;20239;-70
2022/07/31 05:19:37;;;;;;;2.33;1.47;;;17.20;99.90;;;;;;5092731;28;20914;-66
2022/07/31 05:22:04;;;;;;;3.43;1.50;;;17.10;99.90;;;;;;5092705;28;20179;-68
2022/07/31 05:24:32;;;;;;;4.40;1.70;;;17.00;99.90;;;;;;5092442;28;20270;-71
2022/07/31 05:27:01;;;;;;;7.70;1.90;;;17.10;99.90;;;;;;5092716;28;20171;-67
2022/07/31 05:29:29;;;;;;;2.87;1.27;;;17.00;99.90;;;;;;5112746;28;20792;-71
2022/07/31 05:31:57;;;;;;;3.50;1.47;;;17.10;99.90;;;;;;5097187;28;20223;-67
2022/07/31 05:34:25;;;;;;;2.40;1.20;;;17.00;99.90;;;;;;5092382;28;20186;-66
2022/07/31 05:36:52;;;;;;;5.40;1.60;;;17.00;99.90;;;;;;5092490;28;20266;-65
2022/07/31 05:39:20;;;;;;;5.20;2.07;;;16.90;99.90;;;;;;5111182;28;20194;-66
2022/07/31 05:41:49;;;;;;;4.17;2.20;;;16.80;99.90;;;;;;5112736;28;20192;-66
2022/07/31 05:44:17;;;;;;;9.37;2.30;;;16.90;99.90;;;;;;5094271;28;20241;-64
2022/07/31 05:46:45;;;;;;;2.77;1.57;;;16.80;99.90;;;;;;5112536;28;20175;-66
2022/07/31 05:49:12;;;;;;;5.07;1.70;;;16.80;99.90;;;;;;5094344;28;20179;-65
2022/07/31 05:51:43;;;;;;;4.10;1.83;;;16.80;99.90;;;;;;5091197;28;20262;-65
2022/07/31 05:54:11;;;;;;;8.10;1.53;;;16.80;99.90;;;;;;5092059;28;20198;-66
2022/07/31 05:56:39;;;;;;;6.47;1.83;;;16.80;99.90;;;;;;5092146;28;20642;-67
2022/07/31 05:59:06;;;;;;;3.77;1.70;;;16.80;99.90;;;;;;5107335;28;20293;-65
2022/07/31 06:01:34;;;;;;;4.43;1.40;;;16.80;99.90;;;;;;5112460;28;20224;-66
2022/07/31 06:04:02;;;;;;;2.47;1.40;;;16.80;99.90;;;;;;5111971;28;20274;-67
2022/07/31 06:06:29;;;;;;;2.27;1.67;;;16.70;99.90;;;;;;5112437;28;20219;-66
2022/07/31 06:08:57;;;;;;;4.80;1.83;;;16.70;99.90;;;;;;5112338;28;20213;-66
2022/07/31 06:11:25;;;;;;;4.57;2.73;;;16.60;99.90;;;;;;5112146;28;20170;-65
2022/07/31 06:13:53;;;;;;;5.83;1.90;;;16.50;99.90;;;;;;5112130;28;20182;-66
2022/07/31 06:16:21;;;;;;;6.47;1.90;;;16.50;99.90;;;;;;5094492;28;20193;-66
2022/07/31 06:18:48;;;;;;;5.57;1.90;;;16.60;99.90;;;;;;5091696;28;20278;-66
2022/07/31 06:21:16;;;;;;;6.27;2.23;;;16.50;99.90;;;;;;5071262;28;20176;-66
2022/07/31 06:23:44;;;;;;;6.10;2.63;;;16.40;99.90;;;;;;5071346;28;20179;-66
2022/07/31 06:26:12;;;;;;;5.20;2.23;;;16.40;99.90;;;;;;5103048;28;20649;-65
2022/07/31 06:28:39;;;;;;;3.67;2.20;;;16.40;99.90;;;;;;5111751;28;20212;-66
2022/07/31 06:31:07;;;;;;;3.53;1.83;;;16.40;99.90;;;;;;5111511;28;20298;-66
2022/07/31 06:33:35;;;;;;;4.40;2.17;;;16.30;99.90;;;;;;5111754;28;20181;-68
2022/07/31 06:36:02;;;;;;;2.70;1.60;;;16.30;99.90;;;;;;5097316;28;20189;-66
2022/07/31 06:38:30;;;;;;;4.83;1.87;;;16.30;99.90;;;;;;5072899;28;20271;-65
2022/07/31 06:40:58;;;;;;;4.87;2.10;;;16.20;99.90;;;;;;5090919;28;20646;-64
2022/07/31 06:43:25;;;;;;;9.57;2.20;;;16.20;99.90;;;;;;5101755;28;20287;-65
2022/07/31 06:45:53;;;;;;;6.77;2.57;;;16.20;99.90;;;;;;5098902;28;20182;-65
2022/07/31 06:48:21;;;;;;;7.30;2.30;;;16.10;99.90;;;;;;5091119;28;20172;-66
2022/07/31 06:50:49;;;;;;;7.07;2.90;;;16.10;99.90;;;;;;5091426;28;20244;-66
2022/07/31 06:53:16;;;;;;;7.03;2.03;;;16.10;99.90;;;;;;5091166;28;20221;-64
2022/07/31 06:55:44;;;;;;;4.43;2.60;;;16.00;99.90;;;;;;5092258;28;20270;-66
2022/07/31 06:58:12;;;;;;;12.60;3.10;;;15.90;99.90;;;;;;5091127;28;20214;-67
2022/07/31 07:00:39;;;;;;;5.43;2.47;;;15.90;99.90;;;;;;5091312;28;20292;-64
2022/07/31 07:03:07;;;;;;;5.77;2.40;;;15.80;99.90;;;;;;5094080;28;20280;-65
2022/07/31 07:05:35;;;;;;;6.80;2.30;;;15.90;99.90;;;;;;5114054;28;20650;-66
2022/07/31 07:08:02;;;;;;;4.87;2.77;;;15.90;99.90;;;;;;5113278;28;20167;-66
2022/07/31 07:10:30;;;;;;;4.70;2.43;;;15.80;99.90;;;;;;5095471;28;20247;-67
2022/07/31 07:12:58;;;;;;;4.17;2.07;;;15.80;99.90;;;;;;5095310;28;20179;-68
2022/07/31 07:15:25;;;;;;;10.03;2.80;;;15.80;99.90;;;;;;5112850;28;20182;-67
2022/07/31 07:17:53;;;;;;;5.60;3.27;;;15.70;99.90;;;;;;5115397;28;20213;-67
2022/07/31 07:20:21;;;;;;;8.00;3.07;;;15.60;99.90;;;;;;5097311;28;20171;-67
2022/07/31 07:22:49;;;;;;;9.20;3.23;;;15.70;99.90;;;;;;5115418;28;20193;-66
2022/07/31 07:25:19;;;;;;;5.57;3.00;;;15.80;99.90;;;;;;5098373;28;20183;-67
2022/07/31 07:27:47;;;;;;;6.50;2.53;;;15.70;99.90;;;;;;5094895;28;20189;-65
2022/07/31 07:30:15;;;;;;;5.37;2.93;;;15.70;99.90;;;;;;5094838;28;20614;-67
2022/07/31 07:32:43;;;;;;;5.87;2.70;;;15.70;99.90;;;;;;5094618;28;20231;-66
2022/07/31 07:35:11;;;;;;;7.90;3.07;;;15.70;99.90;;;;;;5110124;28;20171;-67
2022/07/31 07:37:42;;;;;;;6.43;2.37;;;15.70;99.90;;;;;;5114926;28;20202;-66
2022/07/31 07:40:10;;;;;;;6.30;2.30;;;15.80;99.90;;;;;;5115123;28;20186;-66
2022/07/31 07:42:38;;;;;;;6.57;2.13;;;15.80;99.90;;;;;;5115080;28;20181;-68
2022/07/31 07:45:06;;;;;;;6.17;2.20;;;15.70;99.90;;;;;;5106038;28;20718;-71
2022/07/31 07:47:34;;;;;;;8.30;2.90;;;15.70;99.90;;;;;;5095913;28;20286;-70
2022/07/31 07:50:02;;;;;;;6.17;2.67;;;15.60;99.90;;;;;;5108952;28;20272;-69
2022/07/31 07:52:30;;;;;;;8.20;3.67;;;15.50;99.90;;;;;;5114886;28;20177;-70
2022/07/31 07:54:58;;;;;;;6.30;3.87;;;15.50;99.90;;;;;;5114162;28;20656;-70
2022/07/31 07:57:25;;;;;;;5.43;3.50;;;15.40;99.90;;;;;;5114312;28;20323;-70
2022/07/31 07:59:53;;;;;;;13.47;3.30;;;15.40;99.90;;;;;;5114581;28;20186;-70
2022/07/31 08:02:20;;;;;;;7.20;3.13;;;15.30;99.90;;;;;;5105970;28;20183;-70
2022/07/31 08:04:48;;;;;;;5.77;2.90;;;15.30;99.90;;;;;;5105391;28;20190;-69
2022/07/31 08:07:15;;;;;;;6.10;2.77;;;15.20;99.90;;;;;;5114653;28;20644;-70
2022/07/31 08:09:43;;;;;;;65.50;46.23;;;15.00;99.90;;;;;;5113988;28;20181;-70
2022/07/31 08:12:10;;;;;;;504.30;378.30;;;14.90;99.90;;;;;;5114480;28;20174;-70
2022/07/31 08:14:37;;;;;;;214.43;144.07;;;14.80;99.90;;;;;;5108381;28;20658;-71
2022/07/31 08:17:10;;;;;;;1370.97;855.03;;;14.80;99.90;;;;;;5075902;28;20600;-71
2022/07/31 08:19:37;;;;;;;739.90;591.33;;;14.80;99.90;;;;;;5094002;28;20176;-69
2022/07/31 08:22:05;;;;;;;216.20;176.67;;;14.80;99.90;;;;;;5093833;28;20231;-71
2022/07/31 08:24:32;;;;;;;24.07;17.57;;;14.80;99.90;;;;;;5095066;28;20199;-70
2022/07/31 08:29:45;;;;;;;11.37;10.17;;;14.60;99.90;;;;;;5097499;28;20220;-71
2022/07/31 08:32:13;;;;;;;15.33;8.90;;;14.70;99.90;;;;;;5113945;28;20252;-71
2022/07/31 08:34:40;;;;;;;11.00;7.40;;;14.70;99.90;;;;;;5102279;28;20240;-70
2022/07/31 08:37:08;;;;;;;9.30;5.30;;;14.90;99.90;;;;;;5100786;28;20186;-71
2022/07/31 08:39:36;;;;;;;6.90;3.73;;;14.90;99.90;;;;;;5113942;28;20278;-69
2022/07/31 08:42:08;;;;;;;7.47;3.00;;;15.00;99.90;;;;;;5113945;28;20568;-70
2022/07/31 08:44:40;;;;;;;14.00;7.40;;;15.10;99.90;;;;;;5112390;28;20166;-71
2022/07/31 08:47:10;;;;;;;18.97;9.90;;;15.10;99.90;;;;;;5106541;28;20213;-70
2022/07/31 08:49:41;;;;;;;100.07;56.80;;;15.20;99.90;;;;;;5103366;28;20282;-70
2022/07/31 08:52:20;;;;;;;45.33;28.63;;;15.20;99.90;;;;;;5093337;28;20592;-71
2022/07/31 08:54:52;;;;;;;433.47;296.47;;;15.10;99.90;;;;;;5093238;28;20183;-71
2022/07/31 08:57:20;;;;;;;688.43;511.30;;;15.10;99.90;;;;;;5095228;28;20256;-71
2022/07/31 08:59:51;;;;;;;273.67;188.53;;;15.00;99.90;;;;;;5113650;28;20241;-69
2022/07/31 09:02:18;;;;;;;66.10;40.63;;;14.90;99.90;;;;;;5113412;28;20170;-71
2022/07/31 09:04:47;;;;;;;45.77;29.00;;;15.00;99.90;;;;;;5113204;28;20187;-71
2022/07/31 09:07:15;;;;;;;41.17;27.97;;;14.90;99.90;;;;;;5113575;28;20181;-71
2022/07/31 09:09:44;;;;;;;26.40;16.63;;;14.90;99.90;;;;;;5111574;28;20190;-71
2022/07/31 09:12:12;;;;;;;538.63;347.63;;;14.80;99.90;;;;;;5113254;28;20540;-71
2022/07/31 09:14:46;;;;;;;455.47;307.10;;;14.70;99.90;;;;;;5094977;28;20182;-71
2022/07/31 09:17:14;;;;;;;141.97;89.00;;;14.70;99.90;;;;;;5098324;28;20190;-70
2022/07/31 09:19:44;;;;;;;427.87;285.20;;;14.80;99.90;;;;;;5133475;27;20212;-70
2022/07/31 09:22:26;;;;;;;707.33;511.70;;;14.90;99.90;;;;;;5121996;27;20201;-70
2022/07/31 09:24:54;;;;;;;214.63;134.43;;;14.90;99.90;;;;;;5089157;28;20600;-70
2022/07/31 09:27:27;;;;;;;39.47;25.53;;;14.90;99.90;;;;;;5093365;28;20591;-71
2022/07/31 09:29:56;;;;;;;634.67;426.43;;;14.80;99.90;;;;;;5108858;28;20192;-70
2022/07/31 09:32:24;;;;;;;160.40;106.23;;;14.80;99.90;;;;;;5114222;28;20697;-71
2022/07/31 09:34:51;;;;;;;76.60;47.63;;;14.80;99.90;;;;;;5114373;28;20178;-71
2022/07/31 09:37:20;;;;;;;49.73;31.60;;;14.60;99.90;;;;;;5114198;28;20618;-71
2022/07/31 09:39:54;;;;;;;13.57;7.47;;;14.60;99.90;;;;;;5102694;28;20225;-72
2022/07/31 09:42:24;;;;;;;7.07;5.00;;;14.60;99.90;;;;;;5093923;28;20180;-71
2022/07/31 09:44:51;;;;;;;13.50;4.70;;;14.60;99.90;;;;;;5093814;28;20606;-71
2022/07/31 09:47:27;;;;;;;6.83;3.47;;;14.60;99.90;;;;;;5104714;28;20266;-71
2022/07/31 09:50:05;;;;;;;5.97;2.73;;;14.60;99.90;;;;;;5114150;28;20220;-70
2022/07/31 09:52:33;;;;;;;6.10;3.00;;;14.70;99.90;;;;;;5114188;28;20201;-71
2022/07/31 09:55:07;;;;;;;6.40;3.10;;;14.70;99.90;;;;;;5114249;28;20178;-71
2022/07/31 09:57:36;;;;;;;6.57;3.27;;;14.70;99.90;;;;;;5114186;28;20562;-71
2022/07/31 10:00:08;;;;;;;9.13;3.00;;;14.80;99.90;;;;;;5114013;28;20227;-73
2022/07/31 10:02:38;;;;;;;5.53;2.73;;;14.70;99.90;;;;;;5114135;28;20175;-71
2022/07/31 10:05:07;;;;;;;3.47;2.40;;;14.70;99.90;;;;;;5095985;28;20659;-72
2022/07/31 10:07:37;;;;;;;4.80;2.17;;;14.70;99.90;;;;;;5096083;28;20197;-71
2022/07/31 10:10:06;;;;;;;7.73;3.03;;;14.60;99.90;;;;;;5113825;28;20178;-71
2022/07/31 10:12:38;;;;;;;14.10;5.80;;;14.50;99.90;;;;;;5113683;28;20615;-72
2022/07/31 10:15:11;;;;;;;7.40;2.97;;;14.40;99.90;;;;;;5114097;28;20192;-72
2022/07/31 10:17:43;;;;;;;8.23;2.50;;;14.30;99.90;;;;;;5113705;28;20199;-70
2022/07/31 10:20:20;;;;;;;6.30;2.40;;;14.30;99.90;;;;;;5113870;28;20539;-70
2022/07/31 10:22:53;;;;;;;7.43;3.53;;;14.20;99.90;;;;;;5113858;28;20178;-70
2022/07/31 10:25:26;;;;;;;7.97;3.33;;;14.10;99.90;;;;;;5113842;28;20170;-70
2022/07/31 10:27:56;;;;;;;6.10;3.10;;;14.10;99.90;;;;;;5113663;28;20206;-71
2022/07/31 10:30:24;;;;;;;5.53;2.90;;;14.00;99.90;;;;;;5113583;28;20213;-70
2022/07/31 10:32:53;;;;;;;6.63;2.50;;;14.00;99.90;;;;;;5113289;28;20234;-71
2022/07/31 10:35:21;;;;;;;6.57;2.80;;;14.10;99.90;;;;;;5113554;28;20265;-71
2022/07/31 10:38:29;;;;;;;6.40;2.80;;;14.10;99.90;;;;;;5112786;28;20219;-71
2022/07/31 10:41:15;;;;;;;5.27;2.73;;;14.10;99.90;;;;;;5031197;28;20585;-71
2022/07/31 10:43:54;;;;;;;5.57;2.70;;;14.20;99.90;;;;;;5030797;28;20173;-71
2022/07/31 10:46:32;;;;;;;4.50;2.53;;;14.20;99.90;;;;;;5072523;28;20185;-71
2022/07/31 10:49:01;;;;;;;4.70;2.40;;;14.10;99.90;;;;;;5113229;28;20518;-71
2022/07/31 10:51:30;;;;;;;6.93;2.90;;;14.10;99.90;;;;;;5113308;28;20692;-71
2022/07/31 10:54:00;;;;;;;5.17;2.40;;;14.20;99.90;;;;;;5095112;28;20262;-70
2022/07/31 10:56:28;;;;;;;6.27;2.70;;;14.20;99.90;;;;;;5102017;28;20167;-68
2022/07/31 10:58:57;;;;;;;5.30;2.90;;;14.20;99.90;;;;;;5095960;28;20205;-71
2022/07/31 11:01:25;;;;;;;6.27;3.27;;;14.10;99.90;;;;;;5113131;28;20725;-71
2022/07/31 11:04:03;;;;;;;5.97;2.73;;;14.10;99.90;;;;;;5113095;28;20184;-70
2022/07/31 11:06:43;;;;;;;5.20;2.70;;;14.10;99.90;;;;;;5113527;28;20181;-69
2022/07/31 11:09:22;;;;;;;6.60;2.90;;;14.20;99.90;;;;;;5082501;28;20205;-71
2022/07/31 11:11:50;;;;;;;3.40;2.60;;;14.20;99.90;;;;;;5092373;28;20175;-70
2022/07/31 11:14:17;;;;;;;3.47;2.40;;;14.20;99.90;;;;;;5073222;28;20536;-71
2022/07/31 11:16:52;;;;;;;8.10;2.70;;;14.20;99.90;;;;;;5092773;28;20203;-71
2022/07/31 11:19:20;;;;;;;3.73;2.17;;;14.20;99.90;;;;;;5093140;28;20210;-71
2022/07/31 11:21:47;;;;;;;5.33;2.43;;;14.20;99.90;;;;;;5092660;28;20625;-72
2022/07/31 11:24:18;;;;;;;4.07;2.30;;;14.10;99.90;;;;;;5108685;28;20231;-71
2022/07/31 11:26:51;;;;;;;4.93;2.87;;;14.20;99.90;;;;;;5102106;28;20277;-70
2022/07/31 11:29:34;;;;;;;4.77;2.60;;;14.20;99.90;;;;;;5100209;28;20651;-70
2022/07/31 11:32:05;;;;;;;5.93;2.57;;;14.20;99.90;;;;;;5093269;28;20261;-71
2022/07/31 11:34:52;;;;;;;4.97;2.50;;;14.20;99.90;;;;;;5092840;28;20264;-71
2022/07/31 11:37:31;;;;;;;5.03;3.00;;;14.20;99.90;;;;;;5094305;28;20223;-71
2022/07/31 11:40:00;;;;;;;5.53;2.20;;;14.10;99.90;;;;;;5100594;28;20214;-71
2022/07/31 11:42:28;;;;;;;4.90;2.50;;;14.00;99.90;;;;;;5109508;28;20256;-71
2022/07/31 11:45:05;;;;;;;4.17;2.47;;;13.90;99.90;;;;;;5094387;28;20649;-71
2022/07/31 11:47:43;;;;;;;6.07;2.53;;;13.80;99.90;;;;;;5113140;28;20174;-70
2022/07/31 11:50:12;;;;;;;4.23;2.43;;;13.70;99.90;;;;;;5116571;28;20178;-71
2022/07/31 11:52:43;;;;;;;5.80;2.20;;;13.50;99.90;;;;;;5116618;28;20175;-71
2022/07/31 11:55:13;;;;;;;4.40;2.63;;;13.60;99.90;;;;;;5116517;28;20178;-72
2022/07/31 11:57:42;;;;;;;6.67;2.63;;;13.60;99.90;;;;;;5116257;28;20217;-70
2022/07/31 12:00:15;;;;;;;5.40;2.67;;;13.60;99.90;;;;;;5116255;28;20560;-70
2022/07/31 12:02:46;;;;;;;6.60;2.97;;;13.60;99.90;;;;;;5115874;28;20273;-71
2022/07/31 12:05:14;;;;;;;7.20;2.67;;;13.50;99.90;;;;;;5116063;28;20653;-71
2022/07/31 12:07:42;;;;;;;5.53;2.50;;;13.40;99.90;;;;;;5116009;28;20173;-71
2022/07/31 12:10:12;;;;;;;6.50;2.77;;;13.30;99.90;;;;;;5116138;28;20185;-71
2022/07/31 12:12:41;;;;;;;5.77;2.57;;;13.20;99.90;;;;;;5097872;28;20258;-72
2022/07/31 12:15:17;;;;;;;46.13;21.27;;;13.20;99.90;;;;;;5116154;28;20174;-71
2022/07/31 12:17:47;;;;;;;13.80;6.97;;;13.40;99.90;;;;;;5097809;28;20334;-72
2022/07/31 12:20:15;;;;;;;5.07;3.00;;;13.30;99.90;;;;;;5097605;28;20643;-71
2022/07/31 12:22:42;;;;;;;5.50;2.70;;;13.30;99.90;;;;;;5115929;28;20169;-70
2022/07/31 12:25:11;;;;;;;5.87;2.80;;;13.30;99.90;;;;;;5115870;28;20184;-72
2022/07/31 12:27:39;;;;;;;5.13;3.03;;;13.30;99.90;;;;;;5116147;28;20178;-72
2022/07/31 12:30:14;;;;;;;11.07;2.50;;;13.20;99.90;;;;;;5116121;28;20182;-72
2022/07/31 12:32:42;;;;;;;7.30;2.67;;;13.20;99.90;;;;;;5115621;28;20231;-73
2022/07/31 12:35:09;;;;;;;6.47;2.47;;;13.20;99.90;;;;;;5115774;28;20654;-72
2022/07/31 12:37:47;;;;;;;9.27;2.80;;;13.10;99.90;;;;;;5115782;28;20564;-70
2022/07/31 12:40:27;;;;;;;4.70;2.73;;;13.10;99.90;;;;;;5115587;28;20186;-71
2022/07/31 12:42:58;;;;;;;3.83;2.33;;;13.10;99.90;;;;;;5115667;28;20221;-71
2022/07/31 12:45:36;;;;;;;4.30;2.43;;;13.20;99.90;;;;;;5115776;28;20249;-70
2022/07/31 12:48:04;;;;;;;7.53;2.93;;;13.20;99.90;;;;;;5097297;28;20188;-72
2022/07/31 12:50:33;;;;;;;7.47;2.60;;;13.20;99.90;;;;;;5080521;28;20187;-70
2022/07/31 12:53:03;;;;;;;8.00;3.10;;;13.10;99.90;;;;;;5077103;28;20174;-70
2022/07/31 12:55:33;;;;;;;9.93;3.37;;;13.10;99.90;;;;;;5095029;28;20187;-71
2022/07/31 12:58:01;;;;;;;6.70;2.80;;;13.10;99.90;;;;;;5095155;28;20691;-72
2022/07/31 13:00:28;;;;;;;4.70;2.70;;;13.00;99.90;;;;;;5094412;28;20178;-70